Time;durP1;ratioP1;P1;durP2;ratioP2;P2;SDS_P1;SDS_P2;PMS_P1;PMS_P2;Temp;Humidity;BMP_temperature;BMP_pressure;BME280_temperature;BME280_humidity;BME280_pressure;Samples;Min_cycle;Max_cycle;Signal;HPM_P1;HPM_P2
2022/09/01 00:01:37;;;;;;;5.60;5.30;;;;;;;16.54;96.68;95690.41;4356136;32;20197;-58
2022/09/01 00:04:03;;;;;;;5.80;5.40;;;;;;;16.58;96.55;95688.69;4364298;32;20189;-59
2022/09/01 00:06:31;;;;;;;5.27;4.97;;;;;;;16.45;96.43;95685.09;4345902;32;20203;-59
2022/09/01 00:09:00;;;;;;;6.60;5.83;;;;;;;16.31;97.10;95689.09;4370651;32;20222;-59
2022/09/01 00:11:27;;;;;;;6.10;5.47;;;;;;;16.48;96.80;95680.97;4364062;32;20292;-58
2022/09/01 00:13:54;;;;;;;6.90;6.30;;;;;;;16.56;96.39;95693.56;4352588;32;20297;-58
2022/09/01 00:16:19;;;;;;;6.37;5.87;;;;;;;16.60;96.02;95688.34;4346494;32;20197;-59
2022/09/01 00:18:48;;;;;;;10.77;7.07;;;;;;;16.44;96.72;95698.78;4372958;32;20211;-59
2022/09/01 00:21:15;;;;;;;6.67;6.27;;;;;;;16.27;97.03;95691.62;4363748;32;20197;-58
2022/09/01 00:23:41;;;;;;;6.03;5.53;;;;;;;16.23;97.63;95692.56;4367700;32;20215;-58
2022/09/01 00:26:06;;;;;;;6.00;5.70;;;;;;;16.22;97.50;95691.00;4365527;32;20233;-58
2022/09/01 00:28:33;;;;;;;5.13;4.83;;;;;;;16.26;97.71;95694.59;4368281;32;20189;-61
2022/09/01 00:30:59;;;;;;;6.53;6.03;;;;;;;16.35;97.17;95696.16;4346238;32;20194;-59
2022/09/01 00:33:25;;;;;;;4.67;4.37;;;;;;;16.21;97.76;95692.88;4347933;32;20200;-58
2022/09/01 00:35:50;;;;;;;6.10;5.70;;;;;;;16.31;97.46;95695.22;4361010;32;20260;-59
2022/09/01 00:38:15;;;;;;;7.10;6.60;;;;;;;16.18;98.10;95693.53;4355169;32;20188;-59
2022/09/01 00:40:41;;;;;;;7.73;7.03;;;;;;;16.23;98.05;95685.31;4374742;32;20185;-59
2022/09/01 00:43:15;;;;;;;5.43;5.13;;;;;;;16.14;97.77;95687.25;4374374;32;20239;-59
2022/09/01 00:45:41;;;;;;;5.67;5.17;;;;;;;16.15;98.39;95686.16;4354299;32;20203;-59
2022/09/01 00:48:08;;;;;;;6.43;6.03;;;;;;;16.25;97.83;95685.78;4350718;32;20228;-59
2022/09/01 00:50:35;;;;;;;5.53;5.23;;;;;;;16.26;97.81;95676.66;4374769;32;20188;-59
2022/09/01 00:53:01;;;;;;;6.33;5.93;;;;;;;16.25;97.56;95680.44;4360839;32;20185;-59
2022/09/01 00:55:32;;;;;;;6.93;6.20;;;;;;;16.35;97.00;95680.09;4367654;32;20235;-59
2022/09/01 00:58:00;;;;;;;6.80;6.07;;;;;;;16.32;97.29;95682.62;4368750;32;20193;-59
2022/09/01 01:00:29;;;;;;;6.50;6.03;;;;;;;16.33;96.95;95676.16;4368874;32;20291;-60
2022/09/01 01:02:55;;;;;;;6.33;5.87;;;;;;;16.31;96.78;95676.50;4346569;32;20294;-59
2022/09/01 01:05:23;;;;;;;7.70;6.60;;;;;;;16.21;97.21;95674.16;4372549;32;20201;-59
2022/09/01 01:07:49;;;;;;;6.13;5.73;;;;;;;16.29;97.15;95677.91;4360021;32;20196;-58
2022/09/01 01:10:21;;;;;;;6.80;6.27;;;;;;;16.33;96.57;95674.28;4363327;32;20224;-58
2022/09/01 01:12:47;;;;;;;5.77;5.47;;;;;;;16.33;96.52;95682.31;4358924;32;20197;-59
2022/09/01 01:15:13;;;;;;;5.23;4.93;;;;;;;16.31;96.68;95673.81;4360543;32;20208;-59
2022/09/01 01:17:39;;;;;;;5.17;4.87;;;;;;;16.25;96.79;95683.12;4373195;32;20200;-58
2022/09/01 01:23:10;;;;;;;5.27;4.87;;;;;;;16.26;96.80;95679.34;4360441;32;20204;-59
2022/09/01 01:25:47;;;;;;;6.07;5.67;;;;;;;16.31;96.50;95679.16;4346740;32;20209;-59
2022/09/01 01:28:17;;;;;;;6.97;6.33;;;;;;;16.26;96.51;95675.88;4368050;32;20254;-58
2022/09/01 01:30:50;;;;;;;7.63;6.97;;;;;;;16.12;96.95;95676.06;4365827;32;20197;-60
2022/09/01 01:33:17;;;;;;;6.13;5.73;;;;;;;16.22;96.79;95673.03;4351093;32;20196;-59
2022/09/01 01:35:43;;;;;;;6.07;5.67;;;;;;;16.25;96.96;95664.37;4373862;32;20197;-59
2022/09/01 01:38:10;;;;;;;6.00;5.50;;;;;;;16.24;97.27;95672.72;4359598;32;20193;-58
2022/09/01 01:40:36;;;;;;;6.83;6.33;;;;;;;16.16;97.00;95666.31;4347111;32;20208;-59
2022/09/01 01:43:03;;;;;;;7.13;6.67;;;;;;;16.11;97.48;95671.81;4353193;32;20314;-61
2022/09/01 01:45:29;;;;;;;6.10;5.70;;;;;;;16.10;97.31;95670.25;4354369;32;20197;-59
2022/09/01 01:47:56;;;;;;;5.93;5.33;;;;;;;16.05;97.23;95665.06;4348431;32;20193;-59
2022/09/01 01:50:24;;;;;;;6.93;6.33;;;;;;;16.02;97.34;95666.47;4358746;32;20208;-59
2022/09/01 01:52:50;;;;;;;5.93;5.43;;;;;;;16.03;97.00;95664.59;4355517;32;20197;-58
2022/09/01 01:55:18;;;;;;;5.57;5.17;;;;;;;16.02;97.24;95665.69;4362501;32;20185;-59
2022/09/01 01:57:48;;;;;;;7.37;6.67;;;;;;;16.01;97.16;95669.47;4366373;32;20188;-59
2022/09/01 02:00:19;;;;;;;6.50;6.10;;;;;;;15.95;97.17;95660.06;4372520;32;20204;-58
2022/09/01 02:02:53;;;;;;;6.60;6.10;;;;;;;15.95;97.40;95665.41;4370730;32;20244;-59
2022/09/01 02:05:23;;;;;;;5.97;5.63;;;;;;;16.02;97.28;95657.66;4371409;32;20199;-59
2022/09/01 02:07:53;;;;;;;6.07;5.57;;;;;;;16.00;97.16;95663.34;4357890;32;20193;-59
2022/09/01 02:10:18;;;;;;;7.17;6.57;;;;;;;16.10;96.77;95662.22;4357082;32;20225;-59
2022/09/01 02:12:45;;;;;;;5.73;5.33;;;;;;;16.09;96.13;95660.66;4372124;32;20219;-57
2022/09/01 02:15:11;;;;;;;6.90;6.33;;;;;;;16.06;96.45;95661.28;4367354;32;20181;-59
2022/09/01 02:17:38;;;;;;;5.47;5.17;;;;;;;15.97;96.47;95655.97;4344313;32;20192;-59
2022/09/01 02:20:05;;;;;;;7.27;6.77;;;;;;;15.89;97.14;95655.97;4368374;32;20189;-58
2022/09/01 02:22:30;;;;;;;5.63;5.33;;;;;;;15.96;96.59;95656.28;4349084;32;20189;-59
2022/09/01 02:24:56;;;;;;;5.93;5.47;;;;;;;16.01;96.20;95658.78;4360262;32;20272;-58
2022/09/01 02:27:24;;;;;;;5.37;5.07;;;;;;;15.99;95.90;95656.44;4376346;32;23295;-59
2022/09/01 02:29:50;;;;;;;6.00;5.50;;;;;;;15.93;96.14;95660.38;4349938;32;20219;-59
2022/09/01 02:32:20;;;;;;;6.17;5.77;;;;;;;16.00;96.02;95662.59;4349105;32;20269;-59
2022/09/01 02:34:52;;;;;;;5.03;4.63;;;;;;;15.89;96.61;95658.66;4354725;32;20193;-59
2022/09/01 02:37:24;;;;;;;4.60;4.20;;;;;;;15.82;96.97;95661.81;4361050;32;20278;-58
2022/09/01 02:39:52;;;;;;;5.27;4.93;;;;;;;15.96;96.09;95670.47;4359532;32;20310;-59
2022/09/01 02:42:23;;;;;;;5.70;5.40;;;;;;;16.07;95.77;95660.97;4358479;32;20232;-58
2022/09/01 02:44:49;;;;;;;6.33;5.83;;;;;;;16.09;95.42;95672.16;4366486;32;20189;-60
2022/09/01 02:47:14;;;;;;;5.63;5.33;;;;;;;16.08;95.28;95669.78;4365211;32;20200;-59
2022/09/01 02:49:41;;;;;;;4.90;4.60;;;;;;;16.08;95.36;95664.44;4354495;32;20243;-59
2022/09/01 02:52:07;;;;;;;8.10;7.47;;;;;;;15.99;95.58;95661.00;4362044;32;20195;-59
2022/09/01 02:54:32;;;;;;;5.23;4.93;;;;;;;15.90;95.99;95666.38;4363304;32;20185;-59
2022/09/01 02:56:58;;;;;;;4.90;4.70;;;;;;;16.00;95.95;95662.59;4361986;32;20236;-59
2022/09/01 02:59:26;;;;;;;6.17;5.73;;;;;;;15.85;96.40;95663.06;4350020;32;20215;-58
2022/09/01 03:01:52;;;;;;;5.83;5.43;;;;;;;15.86;96.36;95667.31;4361396;32;20203;-59
2022/09/01 03:04:19;;;;;;;6.90;6.40;;;;;;;15.71;96.57;95665.94;4357010;32;20254;-59
2022/09/01 03:06:45;;;;;;;6.13;5.73;;;;;;;15.79;96.20;95663.22;4358268;32;20185;-59
2022/09/01 03:09:14;;;;;;;6.33;5.83;;;;;;;15.91;95.94;95662.59;4372287;32;20246;-59
2022/09/01 03:11:43;;;;;;;6.93;6.30;;;;;;;16.01;95.48;95666.81;4362242;32;20212;-59
2022/09/01 03:14:08;;;;;;;5.43;5.00;;;;;;;15.95;95.45;95666.22;4346427;32;20247;-58
2022/09/01 03:16:35;;;;;;;8.07;6.23;;;;;;;15.77;95.89;95656.66;4368094;32;20203;-59
2022/09/01 03:19:02;;;;;;;6.20;5.80;;;;;;;15.72;96.04;95657.59;4360353;32;20184;-59
2022/09/01 03:21:28;;;;;;;5.53;5.10;;;;;;;15.67;95.90;95654.28;4345022;32;20207;-59
2022/09/01 03:23:53;;;;;;;5.77;5.37;;;;;;;15.61;96.38;95653.66;4370248;32;20181;-59
2022/09/01 03:26:21;;;;;;;4.47;4.27;;;;;;;15.74;95.88;95644.69;4356061;32;20208;-59
2022/09/01 03:28:48;;;;;;;4.63;4.27;;;;;;;15.89;95.20;95647.97;4363520;32;20243;-58
2022/09/01 03:31:14;;;;;;;4.70;4.40;;;;;;;15.89;95.19;95646.06;4370840;32;20188;-60
2022/09/01 03:33:40;;;;;;;5.10;4.70;;;;;;;15.77;95.17;95645.94;4344309;32;20185;-59
2022/09/01 03:36:06;;;;;;;4.53;4.33;;;;;;;15.81;95.10;95650.31;4357186;32;20188;-58
2022/09/01 03:38:32;;;;;;;5.30;5.00;;;;;;;15.91;94.54;95643.06;4362515;32;20196;-61
2022/09/01 03:41:21;;;;;;;5.47;4.20;;;;;;;16.01;94.12;95642.72;4359516;32;20234;-58
2022/09/01 03:43:47;;;;;;;5.27;4.87;;;;;;;15.98;94.04;95643.38;4348350;32;20200;-59
2022/09/01 03:46:20;;;;;;;4.53;4.27;;;;;;;15.84;94.64;95645.44;4372209;32;20184;-59
2022/09/01 03:48:50;;;;;;;4.93;4.63;;;;;;;15.73;95.04;95643.13;4361839;32;20223;-59
2022/09/01 03:51:16;;;;;;;4.77;4.37;;;;;;;15.81;94.83;95638.84;4369386;32;20203;-59
2022/09/01 03:53:42;;;;;;;4.53;4.30;;;;;;;15.80;94.78;95638.03;4362015;32;20190;-60
2022/09/01 03:56:10;;;;;;;5.53;5.13;;;;;;;15.71;95.02;95633.84;4361314;32;20269;-59
2022/09/01 03:58:36;;;;;;;5.03;4.60;;;;;;;15.58;95.69;95635.59;4347734;32;20256;-59
2022/09/01 04:01:01;;;;;;;5.53;4.93;;;;;;;15.70;95.80;95632.25;4360046;32;20208;-59
2022/09/01 04:03:30;;;;;;;5.30;4.97;;;;;;;15.77;94.93;95629.91;4344812;32;20212;-59
2022/09/01 04:05:57;;;;;;;4.40;4.20;;;;;;;15.79;94.85;95630.38;4368418;32;20223;-59
2022/09/01 04:08:28;;;;;;;5.43;5.13;;;;;;;15.81;94.54;95628.13;4349836;32;20299;-60
2022/09/01 04:10:54;;;;;;;4.97;4.67;;;;;;;15.77;94.27;95622.66;4363750;32;20244;-60
2022/09/01 04:13:24;;;;;;;3.80;3.60;;;;;;;15.63;94.80;95624.72;4347588;32;20212;-59
2022/09/01 04:15:51;;;;;;;4.70;4.50;;;;;;;15.56;95.27;95624.44;4375726;32;20180;-58
2022/09/01 04:18:20;;;;;;;5.30;5.00;;;;;;;15.54;95.62;95629.28;4360862;32;20185;-58
2022/09/01 04:20:49;;;;;;;5.77;5.33;;;;;;;15.57;95.48;95623.31;4372032;32;20192;-58
2022/09/01 04:23:32;;;;;;;5.60;5.20;;;;;;;15.67;95.17;95630.22;4367238;32;20213;-58
2022/09/01 04:26:10;;;;;;;5.87;5.40;;;;;;;15.54;95.68;95623.12;4371525;32;20204;-60
2022/09/01 04:28:44;;;;;;;4.70;4.43;;;;;;;15.47;96.38;95627.06;4373078;32;20250;-59
2022/09/01 04:31:13;;;;;;;10.13;5.50;;;;;;;15.50;96.38;95622.19;4375047;32;20188;-58
2022/09/01 04:33:39;;;;;;;5.23;4.87;;;;;;;15.57;96.36;95626.00;4368304;32;20189;-59
2022/09/01 04:36:13;;;;;;;6.57;6.07;;;;;;;15.54;96.77;95629.28;4357759;32;20192;-59
2022/09/01 04:38:38;;;;;;;5.27;4.93;;;;;;;15.64;96.46;95625.50;4358716;32;20248;-59
2022/09/01 04:41:08;;;;;;;8.07;7.27;;;;;;;15.56;96.67;95632.44;4356564;32;20188;-58
2022/09/01 04:43:34;;;;;;;5.97;5.67;;;;;;;15.61;96.90;95632.25;4361045;32;20203;-59
2022/09/01 04:46:00;;;;;;;8.00;7.40;;;;;;;15.55;96.64;95630.84;4382516;32;20208;-58
2022/09/01 04:48:25;;;;;;;6.20;5.73;;;;;;;15.69;96.36;95631.47;4366973;32;20252;-59
2022/09/01 04:50:51;;;;;;;6.30;5.77;;;;;;;15.77;95.98;95633.34;4374537;32;20193;-59
2022/09/01 04:53:18;;;;;;;6.23;5.70;;;;;;;15.67;96.45;95631.00;4348978;32;20189;-58
2022/09/01 04:55:46;;;;;;;7.37;6.67;;;;;;;15.57;96.95;95628.66;4365570;32;20185;-59
2022/09/01 04:58:16;;;;;;;6.00;5.60;;;;;;;15.62;96.69;95631.16;4363030;32;20186;-59
2022/09/01 05:00:54;;;;;;;6.57;6.17;;;;;;;15.46;96.79;95635.41;4368292;32;20244;-58
2022/09/01 05:03:22;;;;;;;6.23;5.70;;;;;;;15.65;96.61;95635.09;4364924;32;20196;-58
2022/09/01 05:05:48;;;;;;;7.30;6.63;;;;;;;15.72;96.47;95635.41;4358809;32;20236;-59
2022/09/01 05:08:20;;;;;;;6.53;6.13;;;;;;;15.64;96.18;95633.53;4346248;32;20203;-59
2022/09/01 05:10:54;;;;;;;6.73;6.17;;;;;;;15.52;96.35;95634.16;4364642;32;20200;-58
2022/09/01 05:13:22;;;;;;;6.50;6.00;;;;;;;15.52;96.32;95631.47;4364552;32;20193;-58
2022/09/01 05:16:01;;;;;;;6.03;5.63;;;;;;;15.52;96.49;95631.47;4363060;32;20192;-59
2022/09/01 05:18:27;;;;;;;7.40;6.73;;;;;;;15.56;96.50;95639.69;4368447;32;20236;-58
2022/09/01 05:20:53;;;;;;;5.17;4.97;;;;;;;15.69;95.84;95639.50;4353013;32;20284;-58
2022/09/01 05:23:20;;;;;;;7.10;6.50;;;;;;;15.79;95.41;95641.81;4360685;32;20189;-59
2022/09/01 05:25:48;;;;;;;7.00;6.33;;;;;;;15.76;95.27;95639.81;4364777;32;20249;-59
2022/09/01 05:28:18;;;;;;;6.13;5.67;;;;;;;15.86;95.29;95637.88;4353842;32;20189;-58
2022/09/01 05:30:46;;;;;;;6.60;6.00;;;;;;;15.84;95.37;95643.56;4368842;32;20196;-58
2022/09/01 05:33:15;;;;;;;6.20;5.70;;;;;;;15.88;94.84;95641.81;4370225;32;20250;-58
2022/09/01 05:35:50;;;;;;;5.70;5.40;;;;;;;15.88;94.66;95643.72;4348417;32;20193;-58
2022/09/01 05:38:17;;;;;;;7.83;6.07;;;;;;;15.90;94.37;95646.84;4345732;32;20207;-59
2022/09/01 05:40:43;;;;;;;6.23;5.80;;;;;;;15.82;94.62;95635.06;4365050;32;20193;-58
2022/09/01 05:43:11;;;;;;;4.63;4.43;;;;;;;15.75;94.87;95635.56;4362702;32;20255;-59
2022/09/01 05:45:43;;;;;;;5.83;4.97;;;;;;;15.71;94.38;95633.84;4366689;32;20185;-58
2022/09/01 05:48:11;;;;;;;5.47;5.07;;;;;;;15.66;94.60;95637.44;4368145;32;20188;-59
2022/09/01 05:50:41;;;;;;;4.20;3.90;;;;;;;15.76;94.47;95642.47;4349203;32;20193;-58
2022/09/01 05:53:09;;;;;;;5.13;4.73;;;;;;;15.73;94.27;95642.31;4359105;32;20184;-59
2022/09/01 05:55:37;;;;;;;5.77;5.37;;;;;;;15.83;93.61;95636.63;4346720;32;20226;-59
2022/09/01 05:58:04;;;;;;;5.57;5.27;;;;;;;15.81;93.15;95636.94;4352000;32;20189;-58
2022/09/01 06:00:33;;;;;;;5.20;4.80;;;;;;;15.69;92.88;95642.19;4364386;32;20193;-59
2022/09/01 06:03:00;;;;;;;3.73;3.57;;;;;;;15.76;91.99;95645.16;4369659;32;20268;-59
2022/09/01 06:05:26;;;;;;;5.77;5.27;;;;;;;15.87;91.36;95642.91;4348324;32;20188;-58
2022/09/01 06:07:54;;;;;;;4.83;4.53;;;;;;;15.85;91.19;95641.66;4359752;32;20227;-58
2022/09/01 06:10:19;;;;;;;5.17;4.87;;;;;;;15.67;92.04;95647.06;4368836;32;20211;-59
2022/09/01 06:12:46;;;;;;;7.23;4.77;;;;;;;15.85;91.28;95645.12;4359631;32;20192;-58
2022/09/01 06:15:14;;;;;;;5.20;4.80;;;;;;;15.82;91.29;95641.19;4358269;32;20196;-58
2022/09/01 06:17:40;;;;;;;6.00;5.60;;;;;;;15.91;91.20;95649.22;4372241;32;20199;-59
2022/09/01 06:20:09;;;;;;;5.20;4.90;;;;;;;16.03;90.85;95641.28;4372384;32;20197;-59
2022/09/01 06:22:35;;;;;;;6.63;4.83;;;;;;;15.98;90.66;95643.38;4367970;32;20197;-59
2022/09/01 06:25:00;;;;;;;5.33;4.87;;;;;;;15.92;90.75;95650.00;4347031;32;20261;-55
2022/09/01 06:27:26;;;;;;;4.30;4.00;;;;;;;15.86;90.97;95645.91;4358515;32;20193;-55
2022/09/01 06:29:54;;;;;;;5.03;4.63;;;;;;;15.93;90.81;95649.69;4364342;32;20223;-53
2022/09/01 06:32:19;;;;;;;5.47;5.07;;;;;;;15.81;90.73;95661.03;4356161;32;20220;-54
2022/09/01 06:34:48;;;;;;;5.10;4.70;;;;;;;15.77;91.07;95654.75;4344689;32;20241;-54
2022/09/01 06:37:14;;;;;;;7.27;5.70;;;;;;;15.88;90.68;95649.06;4358692;32;20220;-54
2022/09/01 06:39:40;;;;;;;4.67;4.33;;;;;;;15.89;90.82;95653.31;4356835;32;20208;-53
2022/09/01 06:42:08;;;;;;;5.13;4.77;;;;;;;15.94;90.66;95647.78;4370053;32;20192;-55
2022/09/01 06:44:34;;;;;;;4.90;4.50;;;;;;;15.92;90.89;95655.34;4364068;32;20194;-55
2022/09/01 06:46:59;;;;;;;5.47;5.07;;;;;;;15.94;90.90;95651.25;4368910;32;20193;-55
2022/09/01 06:49:35;;;;;;;4.07;3.77;;;;;;;16.00;90.17;95654.56;4358703;32;20215;-54
2022/09/01 06:52:02;;;;;;;5.20;4.80;;;;;;;15.93;90.49;95657.72;4369299;32;20237;-55
2022/09/01 06:54:33;;;;;;;4.13;3.90;;;;;;;15.90;90.37;95652.19;4345223;32;20211;-53
2022/09/01 06:57:02;;;;;;;5.40;4.87;;;;;;;15.87;90.76;95655.50;4363180;32;20200;-56
2022/09/01 06:59:30;;;;;;;4.97;4.47;;;;;;;15.90;90.81;95655.66;4364126;32;20249;-56
2022/09/01 07:02:00;;;;;;;4.43;4.17;;;;;;;15.97;90.53;95664.00;4362391;32;20197;-55
2022/09/01 07:04:28;;;;;;;5.60;5.20;;;;;;;15.98;90.40;95664.78;4344965;32;20222;-54
2022/09/01 07:06:54;;;;;;;5.63;5.33;;;;;;;16.00;90.06;95667.94;4361087;32;20287;-54
2022/09/01 07:09:19;;;;;;;3.83;3.63;;;;;;;15.79;90.78;95673.16;4358401;32;20201;-54
2022/09/01 07:11:45;;;;;;;4.10;3.80;;;;;;;15.88;90.55;95675.81;4357710;32;20204;-54
2022/09/01 07:14:10;;;;;;;6.97;5.40;;;;;;;15.94;90.60;95677.22;4379403;32;20200;-52
2022/09/01 07:16:40;;;;;;;3.20;3.00;;;;;;;15.98;90.36;95688.88;4367868;32;20204;-54
2022/09/01 07:19:13;;;;;;;4.50;4.20;;;;;;;15.98;90.25;95683.53;4357609;32;20200;-52
2022/09/01 07:21:41;;;;;;;4.50;4.20;;;;;;;15.97;90.40;95685.41;4373392;32;20307;-53
2022/09/01 07:24:07;;;;;;;3.60;3.40;;;;;;;15.93;90.68;95689.81;4361067;32;20223;-52
2022/09/01 07:26:34;;;;;;;4.33;4.03;;;;;;;15.97;90.25;95687.31;4351123;32;20246;-65
2022/09/01 07:29:02;;;;;;;3.97;3.70;;;;;;;16.05;90.11;95691.81;4359022;32;20200;-56
2022/09/01 07:31:37;;;;;;;4.10;3.73;;;;;;;16.07;89.11;95685.06;4358744;32;20197;-53
2022/09/01 07:34:05;;;;;;;2.77;2.67;;;;;;;16.12;89.58;95684.09;4342496;32;20188;-63
2022/09/01 07:36:31;;;;;;;3.87;3.57;;;;;;;16.13;88.79;95689.16;4365750;32;20185;-54
2022/09/01 07:38:58;;;;;;;2.37;2.27;;;;;;;16.05;88.34;95691.81;4360974;32;20203;-55
2022/09/01 07:41:25;;;;;;;4.10;3.90;;;;;;;16.12;88.56;95697.50;4350888;32;20275;-54
2022/09/01 07:43:52;;;;;;;3.50;3.30;;;;;;;16.09;89.19;95693.56;4360867;32;20193;-52
2022/09/01 07:46:19;;;;;;;3.27;3.07;;;;;;;16.16;89.28;95701.09;4364061;32;20216;-56
2022/09/01 07:48:47;;;;;;;3.77;3.57;;;;;;;16.30;88.56;95690.97;4366260;32;20185;-56
2022/09/01 07:51:16;;;;;;;4.20;3.93;;;;;;;16.29;88.64;95692.09;4363671;32;20310;-56
2022/09/01 07:53:42;;;;;;;3.00;2.90;;;;;;;16.34;88.04;95702.63;4365590;32;20244;-53
2022/09/01 07:56:10;;;;;;;4.17;3.97;;;;;;;16.40;88.13;95692.53;4368623;32;20244;-55
2022/09/01 07:58:37;;;;;;;3.13;3.03;;;;;;;16.34;87.79;95702.63;4372228;32;20189;-52
2022/09/01 08:01:07;;;;;;;3.03;2.83;;;;;;;16.42;87.52;95701.78;4360962;32;20228;-62
2022/09/01 08:03:34;;;;;;;2.30;2.20;;;;;;;16.45;87.12;95698.47;4360740;32;20188;-60
2022/09/01 08:06:08;;;;;;;2.80;2.63;;;;;;;16.65;86.26;95701.59;4363386;32;20203;-55
2022/09/01 08:08:35;;;;;;;2.33;2.23;;;;;;;16.67;85.00;95702.03;4364720;32;20184;-56
2022/09/01 08:11:02;;;;;;;3.30;3.10;;;;;;;16.64;84.33;95705.38;4362808;32;20196;-56
2022/09/01 08:13:28;;;;;;;1.90;1.80;;;;;;;16.69;84.16;95699.84;4354838;32;20192;-55
2022/09/01 08:15:54;;;;;;;1.87;1.87;;;;;;;16.80;84.25;95701.84;4365909;32;20256;-52
2022/09/01 08:18:20;;;;;;;2.23;2.13;;;;;;;16.80;83.95;95698.38;4354867;32;20177;-56
2022/09/01 08:20:46;;;;;;;2.87;2.67;;;;;;;16.89;82.71;95704.47;4368529;32;20184;-52
2022/09/01 08:23:14;;;;;;;2.60;2.50;;;;;;;16.89;83.34;95706.34;4354608;32;20196;-56
2022/09/01 08:25:41;;;;;;;2.13;2.03;;;;;;;16.86;82.00;95720.41;4354993;32;20207;-54
2022/09/01 08:28:07;;;;;;;4.43;3.40;;;;;;;17.03;81.44;95718.44;4332440;32;20181;-55
2022/09/01 08:30:33;;;;;;;3.27;3.07;;;;;;;16.93;81.67;95720.69;4348241;32;20215;-53
2022/09/01 08:33:00;;;;;;;2.80;2.60;;;;;;;16.89;82.50;95720.53;4368239;32;20244;-56
2022/09/01 08:35:28;;;;;;;2.37;2.27;;;;;;;16.99;82.87;95722.88;4358103;32;20190;-54
2022/09/01 08:37:54;;;;;;;2.17;2.10;;;;;;;17.07;82.03;95724.69;4362473;32;20339;-56
2022/09/01 08:40:22;;;;;;;2.37;2.27;;;;;;;17.04;82.14;95719.97;4371714;32;20217;-55
2022/09/01 08:43:06;;;;;;;3.07;2.87;;;;;;;17.03;82.98;95723.00;4361131;32;20203;-56
2022/09/01 08:45:39;;;;;;;2.10;2.00;;;;;;;17.12;82.03;95721.84;4358148;32;20197;-55
2022/09/01 08:48:20;;;;;;;1.70;1.60;;;;;;;17.09;81.08;95725.16;4369287;32;20189;-57
2022/09/01 08:50:53;;;;;;;2.30;2.20;;;;;;;17.10;80.82;95728.62;4361496;32;20201;-54
2022/09/01 08:53:46;;;;;;;1.90;1.80;;;;;;;17.14;81.08;95727.66;4363447;32;20189;-56
2022/09/01 08:56:12;;;;;;;2.87;2.77;;;;;;;17.21;81.13;95723.69;4352275;32;20205;-54
2022/09/01 08:58:38;;;;;;;2.70;2.57;;;;;;;17.26;80.92;95729.62;4351415;32;20189;-55
2022/09/01 09:01:20;;;;;;;2.00;1.90;;;;;;;17.25;80.60;95732.66;4371222;32;20180;-58
2022/09/01 09:04:02;;;;;;;1.83;1.80;;;;;;;17.28;79.73;95731.97;4367567;32;20196;-54
2022/09/01 09:06:54;;;;;;;2.30;2.27;;;;;;;17.31;79.69;95736.69;4351412;32;20252;-55
2022/09/01 09:09:20;;;;;;;1.97;1.87;;;;;;;17.35;78.68;95727.69;4358725;32;20211;-54
2022/09/01 09:12:24;;;;;;;1.40;1.40;;;;;;;17.39;79.09;95733.19;4373070;32;20223;-56
2022/09/01 09:15:15;;;;;;;2.27;2.17;;;;;;;17.46;78.42;95733.44;4305119;32;20196;-53
2022/09/01 09:17:52;;;;;;;2.23;2.13;;;;;;;17.50;77.79;95737.84;4352414;32;20193;-53
2022/09/01 09:20:17;;;;;;;3.03;2.87;;;;;;;17.38;77.34;95726.25;4343927;32;20188;-54
2022/09/01 09:22:46;;;;;;;1.67;1.57;;;;;;;17.52;78.22;95727.56;4364312;32;20201;-55
2022/09/01 09:25:17;;;;;;;1.93;1.83;;;;;;;17.61;77.44;95722.12;4363960;32;20192;-57
2022/09/01 09:27:47;;;;;;;3.33;2.70;;;;;;;17.61;76.58;95730.19;4364929;32;20193;-57
2022/09/01 09:30:33;;;;;;;2.70;2.50;;;;;;;17.66;76.33;95721.19;4357809;32;20241;-53
2022/09/01 09:33:04;;;;;;;1.87;1.77;;;;;;;17.53;76.11;95725.66;4370124;32;20260;-54
2022/09/01 09:35:44;;;;;;;2.10;2.00;;;;;;;17.45;75.71;95729.22;4346837;32;20215;-54
2022/09/01 09:38:19;;;;;;;2.40;2.20;;;;;;;17.41;75.67;95728.28;4370713;32;20201;-53
2022/09/01 09:41:13;;;;;;;2.43;2.33;;;;;;;17.45;75.73;95731.91;4359832;32;20184;-55
2022/09/01 09:43:54;;;;;;;8.27;2.50;;;;;;;17.40;77.14;95732.09;4372586;32;20212;-55
2022/09/01 09:46:22;;;;;;;2.57;2.37;;;;;;;17.39;75.30;95727.81;4363137;32;20208;-53
2022/09/01 09:49:04;;;;;;;1.83;1.77;;;;;;;17.38;75.21;95726.25;4366518;32;20185;-57
2022/09/01 09:51:30;;;;;;;2.00;1.97;;;;;;;17.41;76.11;95722.91;4345966;32;20219;-56
2022/09/01 09:54:28;;;;;;;1.37;1.37;;;;;;;17.51;75.63;95709.09;4370794;32;20217;-55
2022/09/01 09:57:13;;;;;;;2.17;2.07;;;;;;;17.56;76.70;95705.44;4345145;32;20303;-55
2022/09/01 09:59:48;;;;;;;2.80;2.20;;;;;;;17.56;76.67;95711.59;4359496;32;20201;-56
2022/09/01 10:02:34;;;;;;;2.57;2.47;;;;;;;17.69;74.43;95709.78;4354309;32;20197;-52
2022/09/01 10:05:21;;;;;;;2.13;2.03;;;;;;;17.71;73.09;95713.69;4366495;32;20189;-55
2022/09/01 10:07:47;;;;;;;2.23;2.13;;;;;;;17.77;73.91;95716.97;4365007;32;20192;-54
2022/09/01 10:10:41;;;;;;;2.47;2.37;;;;;;;17.86;74.53;95712.34;4358674;32;20188;-51
2022/09/01 10:13:11;;;;;;;1.77;1.73;;;;;;;18.09;72.74;95705.47;4356253;32;20185;-56
2022/09/01 10:15:39;;;;;;;2.20;2.10;;;;;;;18.13;72.34;95703.69;4359761;32;20186;-53
2022/09/01 10:18:13;;;;;;;2.57;2.43;;;;;;;18.10;72.20;95709.72;4370000;32;20206;-54
2022/09/01 10:20:47;;;;;;;2.33;2.23;;;;;;;18.13;71.59;95709.06;4349900;32;20200;-55
2022/09/01 10:23:13;;;;;;;1.87;1.77;;;;;;;18.18;71.22;95700.00;4347511;32;20195;-56
2022/09/01 10:25:39;;;;;;;1.80;1.70;;;;;;;18.26;70.61;95701.81;4343996;32;20193;-54
2022/09/01 10:28:13;;;;;;;1.47;1.47;;;;;;;18.27;70.23;95703.41;4365512;32;20177;-53
2022/09/01 10:30:42;;;;;;;2.70;2.50;;;;;;;18.35;69.92;95702.50;4355869;32;20228;-56
2022/09/01 10:33:10;;;;;;;2.03;1.93;;;;;;;18.41;69.44;95701.19;4365891;32;20193;-53
2022/09/01 10:35:43;;;;;;;2.47;2.30;;;;;;;18.41;69.10;95711.94;4361826;32;20208;-53
2022/09/01 10:38:18;;;;;;;2.63;2.53;;;;;;;18.40;70.26;95707.66;4346228;32;20230;-53
2022/09/01 10:41:06;;;;;;;2.33;2.23;;;;;;;18.49;69.82;95703.00;4344564;32;20193;-55
2022/09/01 10:43:37;;;;;;;2.13;2.03;;;;;;;18.49;69.80;95702.22;4366025;32;20215;-55
2022/09/01 10:46:08;;;;;;;1.20;1.20;;;;;;;18.50;69.06;95706.44;4357618;32;20193;-54
2022/09/01 10:48:34;;;;;;;2.07;1.97;;;;;;;18.51;70.09;95703.41;4365035;32;20189;-56
2022/09/01 10:51:12;;;;;;;1.53;1.47;;;;;;;18.55;68.55;95707.00;4348366;32;20193;-54
2022/09/01 10:53:42;;;;;;;1.43;1.43;;;;;;;18.66;67.59;95701.25;4357273;32;20197;-56
2022/09/01 10:56:26;;;;;;;1.30;1.30;;;;;;;18.70;68.10;95699.47;4365648;32;20196;-55
2022/09/01 10:58:57;;;;;;;1.73;1.63;;;;;;;18.80;67.23;95696.31;4371876;32;20197;-56
2022/09/01 11:01:41;;;;;;;1.10;1.10;;;;;;;18.83;65.84;95698.34;4370443;32;20385;-56
2022/09/01 11:04:10;;;;;;;1.30;1.20;;;;;;;18.90;64.72;95703.16;4370127;32;20258;-54
2022/09/01 11:06:41;;;;;;;0.93;0.93;;;;;;;18.91;65.69;95691.28;4345523;32;20189;-55
2022/09/01 11:09:17;;;;;;;1.40;1.40;;;;;;;18.94;62.90;95695.97;4371854;32;20232;-53
2022/09/01 11:11:50;;;;;;;0.97;0.97;;;;;;;18.99;63.46;95690.34;4374732;32;20192;-56
2022/09/01 11:14:20;;;;;;;1.10;1.00;;;;;;;19.06;64.83;95691.38;4351915;32;20204;-55
2022/09/01 11:17:24;;;;;;;1.13;1.03;;;;;;;19.04;64.89;95688.25;4358152;32;20208;-56
2022/09/01 11:20:06;;;;;;;1.10;1.10;;;;;;;19.11;64.87;95685.00;4357729;32;20251;-57
2022/09/01 11:22:33;;;;;;;0.67;0.67;;;;;;;19.06;66.02;95686.00;4348052;32;20211;-55
2022/09/01 11:25:12;;;;;;;0.83;0.83;;;;;;;19.01;66.90;95682.75;4357499;32;20271;-56
2022/09/01 11:27:47;;;;;;;0.90;0.90;;;;;;;18.93;67.07;95687.09;4358667;32;20238;-54
2022/09/01 11:30:17;;;;;;;1.00;1.00;;;;;;;18.97;67.43;95682.62;4357725;32;20262;-56
2022/09/01 11:32:47;;;;;;;1.03;1.03;;;;;;;19.10;64.97;95686.91;4365986;32;20214;-55
2022/09/01 11:35:19;;;;;;;1.23;1.03;;;;;;;19.19;63.34;95678.69;4363446;32;20193;-53
2022/09/01 11:37:50;;;;;;;1.53;1.43;;;;;;;19.14;65.12;95679.69;4349215;32;20211;-54
2022/09/01 11:40:25;;;;;;;2.00;1.47;;;;;;;19.19;63.45;95679.47;4371115;32;20184;-54
2022/09/01 11:42:53;;;;;;;1.17;0.93;;;;;;;19.22;63.19;95678.78;4348990;32;20196;-55
2022/09/01 11:45:30;;;;;;;0.53;0.53;;;;;;;19.30;62.27;95681.69;4344756;32;20245;-56
2022/09/01 11:48:00;;;;;;;0.70;0.70;;;;;;;19.39;61.08;95672.34;4356827;32;20204;-55
2022/09/01 11:50:32;;;;;;;0.63;0.63;;;;;;;19.47;60.33;95666.06;4357865;32;20210;-53